Terminal Aerodrome Forecast
Issued by NWS North Platte, NE

Home | Current Version | Previous Version | Text Only | Print | Product List | Glossary On
Versions: 1 2 3 4 5 6 7 8 9 10 11 12 13 14 15
000
FTUS43 KLBF 311200 AAA
TAFLBF
TAF AMD
KLBF 311256Z 3113/0112 VRB03KT P6SM SCT150
     FM311400 30006KT P6SM SCT150
     FM311900 33009KT P6SM SCT120
     FM010100 VRB03KT P6SM SCT120=

USA.gov is the U.S. government's official web portal to all federal, state and local government web resources and services.